Time;durP1;ratioP1;P1;durP2;ratioP2;P2;SDS_P1;SDS_P2;PMS_P1;PMS_P2;Temp;Humidity;BMP_temperature;BMP_pressure;BME280_temperature;BME280_humidity;BME280_pressure;Samples;Min_cycle;Max_cycle;Signal;HPM_P1;HPM_P2
2021/05/28 06:27:23;;;;;;;8.88;5.83;;;;;;;12.73;70.73;99314.97;4390348;79;29916;-82
2021/05/28 06:33:24;;;;;;;10.90;5.20;;;;;;;12.89;70.96;99315.48;4232138;81;25839;-82
2021/05/28 06:39:28;;;;;;;9.38;4.92;;;;;;;13.18;70.43;99317.25;4186155;85;21068;-82
2021/05/28 06:45:31;;;;;;;10.60;4.60;;;;;;;13.46;70.05;99314.08;4187042;85;21088;-83
2021/05/28 06:58:08;;;;;;;6.58;3.40;;;;;;;14.35;69.14;99303.53;3980473;87;21091;-80
2021/05/28 07:04:09;;;;;;;8.00;3.67;;;;;;;15.22;68.34;99310.16;4053369;87;21570;-80
2021/05/28 07:10:12;;;;;;;8.13;3.92;;;;;;;15.89;67.55;99306.58;4043741;87;21672;-80
2021/05/28 07:16:13;;;;;;;7.55;3.62;;;;;;;16.18;66.11;99313.49;3984279;88;21659;-81
2021/05/28 07:22:15;;;;;;;6.87;4.70;;;;;;;16.76;66.24;99307.95;3984009;88;21635;-80
2021/05/28 07:28:16;;;;;;;11.48;4.95;;;;;;;17.01;64.83;99307.72;3982160;88;21733;-80
2021/05/28 07:34:18;;;;;;;5.25;3.20;;;;;;;16.85;64.18;99306.87;3980489;88;21165;-80
2021/05/28 07:40:21;;;;;;;4.70;2.52;;;;;;;16.60;64.21;99309.07;4043939;87;21638;-81
2021/05/28 07:46:23;;;;;;;4.40;2.85;;;;;;;16.36;63.65;99310.62;4043436;87;21669;-80
2021/05/28 07:52:25;;;;;;;7.25;3.37;;;;;;;16.25;63.46;99307.94;4041856;87;22012;-81
2021/05/28 07:58:29;;;;;;;7.03;3.35;;;;;;;15.85;63.58;99312.69;3922606;88;21074;-81
2021/05/28 08:04:30;;;;;;;6.37;3.37;;;;;;;15.88;63.29;99313.88;3877963;92;21061;-80
2021/05/28 08:10:31;;;;;;;6.17;4.05;;;;;;;16.24;63.32;99306.96;3881651;90;21659;-80
2021/05/28 08:16:34;;;;;;;4.40;2.70;;;;;;;16.45;61.88;99304.06;3909870;89;21096;-81
2021/05/28 08:22:36;;;;;;;8.93;3.12;;;;;;;16.60;61.83;99295.87;3902212;88;21117;-81
2021/05/28 08:28:38;;;;;;;4.95;3.17;;;;;;;17.11;61.84;99296.56;3834368;92;21134;-80
2021/05/28 08:34:40;;;;;;;5.00;3.02;;;;;;;17.24;60.74;99300.98;3850339;91;21057;-81
2021/05/28 08:40:42;;;;;;;5.70;3.60;;;;;;;17.21;60.82;99301.80;3934690;88;21618;-80
2021/05/28 08:46:43;;;;;;;4.45;2.40;;;;;;;17.19;59.79;99307.72;3915620;88;21634;-81
2021/05/28 08:52:44;;;;;;;6.17;2.85;;;;;;;17.47;59.66;99314.97;3941506;88;21084;-81
2021/05/28 08:58:46;;;;;;;4.75;3.33;;;;;;;17.38;58.50;99304.97;3990970;88;21128;-83
2021/05/28 09:05:11;;;;;;;7.35;3.35;;;;;;;17.52;57.95;99295.73;3993507;89;21152;-81
2021/05/28 09:11:17;;;;;;;6.20;3.17;;;;;;;17.39;58.16;99300.20;3886618;90;21728;-80
2021/05/28 09:17:19;;;;;;;5.30;4.10;;;;;;;17.18;58.08;99299.24;3979554;87;21060;-81
2021/05/28 09:23:21;;;;;;;5.72;2.75;;;;;;;16.77;57.30;99299.07;3968430;88;21209;-81
2021/05/28 09:29:22;;;;;;;8.55;3.40;;;;;;;16.70;57.93;99293.00;3975108;89;21679;-79
2021/05/28 09:35:24;;;;;;;4.75;2.95;;;;;;;16.68;58.08;99294.00;3985184;89;21145;-81
2021/05/28 09:41:47;;;;;;;7.10;3.52;;;;;;;16.66;58.06;99295.00;3983080;87;21091;-80
2021/05/28 09:47:51;;;;;;;4.95;3.58;;;;;;;16.47;57.88;99292.02;3967662;87;21080;-81
2021/05/28 09:53:52;;;;;;;7.15;3.80;;;;;;;16.23;57.72;99293.73;3985076;89;21133;-81
2021/05/28 09:59:54;;;;;;;5.72;4.12;;;;;;;16.16;57.93;99290.24;3865498;89;21100;-80
2021/05/28 10:05:58;;;;;;;7.30;3.95;;;;;;;16.89;57.76;99290.27;3855898;90;21134;-80
2021/05/28 10:12:00;;;;;;;3.92;2.80;;;;;;;17.20;56.72;99287.77;3918507;89;21156;-80
2021/05/28 10:18:04;;;;;;;4.05;2.45;;;;;;;16.98;57.56;99284.44;3915760;89;21149;-81
2021/05/28 10:24:06;;;;;;;4.60;2.10;;;;;;;16.82;57.22;99290.31;3877512;91;21095;-81
2021/05/28 10:30:14;;;;;;;3.15;2.10;;;;;;;16.88;57.30;99282.55;3880245;90;21234;-82
2021/05/28 10:36:45;;;;;;;4.17;1.85;;;;;;;17.16;56.94;99281.50;3916022;89;21102;-81
2021/05/28 10:43:01;;;;;;;6.92;1.77;;;;;;;17.30;55.97;99273.04;3917307;90;21106;-80
2021/05/28 10:49:12;;;;;;;2.72;1.65;;;;;;;17.18;55.89;99269.41;3911986;90;21117;-80
2021/05/28 10:55:14;;;;;;;5.45;1.77;;;;;;;17.71;55.39;99259.88;3909602;90;21185;-81
2021/05/28 11:01:44;;;;;;;5.33;2.60;;;;;;;18.49;54.80;99252.03;3888456;90;21651;-81
2021/05/28 11:07:47;;;;;;;1.95;1.70;;;;;;;18.48;54.13;99253.81;3890809;90;21198;-81
2021/05/28 11:13:58;;;;;;;5.65;2.10;;;;;;;18.82;53.93;99253.05;3871246;92;21183;-80
2021/05/28 11:20:06;;;;;;;1.80;1.50;;;;;;;18.91;53.64;99253.27;3870799;92;21111;-81
2021/05/28 11:26:15;;;;;;;2.35;1.65;;;;;;;19.09;53.01;99255.72;3870620;91;21119;-81
2021/05/28 11:32:48;;;;;;;3.02;1.80;;;;;;;19.21;53.29;99255.88;3891310;90;21125;-81
2021/05/28 11:39:03;;;;;;;5.67;2.20;;;;;;;19.89;52.80;99259.62;3891790;91;21102;-81
2021/05/28 11:45:08;;;;;;;3.25;1.77;;;;;;;20.67;52.21;99252.25;3867658;91;21104;-81
2021/05/28 11:51:17;;;;;;;3.08;1.70;;;;;;;21.30;51.00;99252.73;3870854;91;21601;-81
2021/05/28 11:57:20;;;;;;;4.65;1.50;;;;;;;21.76;50.20;99246.47;3872551;90;21142;-81
2021/05/28 12:03:22;;;;;;;5.05;1.50;;;;;;;22.13;49.22;99241.55;3880764;90;21195;-81
2021/05/28 12:09:24;;;;;;;3.62;1.70;;;;;;;21.92;46.44;99237.42;3881751;91;21670;-81
2021/05/28 12:15:33;;;;;;;3.08;1.30;;;;;;;21.42;47.64;99235.28;3913339;88;21745;-82
2021/05/28 12:21:34;;;;;;;3.52;1.90;;;;;;;21.00;47.39;99235.08;3922420;89;21185;-81
2021/05/28 12:27:39;;;;;;;3.52;2.08;;;;;;;20.34;46.81;99229.83;3882023;90;21599;-82
2021/05/28 12:33:56;;;;;;;4.35;1.90;;;;;;;19.72;47.23;99228.05;3943982;89;21341;-81
2021/05/28 12:40:08;;;;;;;;;;;;;;;19.59;47.15;99218.22;3916707;90;21612;-81
2021/05/28 12:46:33;;;;;;;5.30;2.10;;;;;;;19.97;48.31;99213.00;3881591;90;20165;-81
2021/05/28 12:52:34;;;;;;;3.42;1.87;;;;;;;19.88;46.05;99223.94;3867964;92;21170;-83
2021/05/28 12:58:41;;;;;;;2.33;1.60;;;;;;;20.10;46.92;99223.63;3835266;91;21183;-80
2021/05/28 13:04:49;;;;;;;2.98;1.77;;;;;;;20.23;46.98;99216.96;3938896;88;21204;-82
2021/05/28 13:10:55;;;;;;;2.45;1.60;;;;;;;20.12;47.14;99223.35;3884746;89;21114;-81
2021/05/28 13:17:24;;;;;;;3.60;1.82;;;;;;;19.98;46.91;99212.57;3888440;88;21137;-81
2021/05/28 13:23:33;;;;;;;3.10;1.45;;;;;;;20.02;46.59;99203.56;3885864;90;21154;-81
2021/05/28 13:29:43;;;;;;;1.80;1.30;;;;;;;20.39;45.91;99200.13;3889407;91;21150;-81
2021/05/28 13:35:47;;;;;;;4.17;1.40;;;;;;;20.37;46.09;99197.78;3890344;91;21087;-82
2021/05/28 13:41:51;;;;;;;4.70;1.40;;;;;;;20.37;46.12;99199.17;3886496;90;21677;-80
2021/05/28 13:47:54;;;;;;;6.58;1.90;;;;;;;20.12;46.06;99201.75;3889657;90;21479;-82
2021/05/28 13:53:55;;;;;;;2.52;1.42;;;;;;;19.92;46.66;99215.69;3887013;90;21082;-82
2021/05/28 14:00:00;;;;;;;10.28;2.40;;;;;;;19.89;45.93;99212.98;3889490;90;21118;-82
2021/05/28 14:06:01;;;;;;;5.87;2.00;;;;;;;19.49;45.98;99219.84;3887187;91;21142;-82
2021/05/28 14:12:04;;;;;;;2.12;1.72;;;;;;;19.17;45.79;99226.63;3892356;91;21126;-82
2021/05/28 14:18:08;;;;;;;3.60;1.92;;;;;;;19.04;46.81;99229.84;3882997;91;21078;-82
2021/05/28 14:24:09;;;;;;;2.42;1.55;;;;;;;18.94;46.52;99227.45;3894261;90;21269;-82
2021/05/28 14:30:13;;;;;;;2.40;1.50;;;;;;;18.88;47.75;99227.77;3886627;90;21126;-81
2021/05/28 14:36:18;;;;;;;3.15;1.30;;;;;;;18.62;46.57;99226.64;3892815;91;21178;-81
2021/05/28 14:42:21;;;;;;;3.12;1.52;;;;;;;18.38;47.80;99227.07;3888176;90;21098;-81
2021/05/28 14:48:41;;;;;;;3.30;2.02;;;;;;;18.16;48.30;99225.22;3879610;91;21188;-81
2021/05/28 14:54:44;;;;;;;2.65;1.82;;;;;;;18.23;49.07;99221.53;3894111;90;21167;-80
2021/05/28 15:00:45;;;;;;;7.20;1.90;;;;;;;18.64;47.98;99214.53;3876735;90;21647;-83
2021/05/28 15:06:47;;;;;;;3.27;1.95;;;;;;;18.99;47.54;99205.38;3833423;92;22318;-82
2021/05/28 15:12:48;;;;;;;4.87;1.87;;;;;;;19.10;47.46;99200.39;3871935;90;21117;-81
2021/05/28 15:18:52;;;;;;;6.45;1.30;;;;;;;19.07;47.86;99187.38;3883608;90;21211;-81
2021/05/28 15:24:54;;;;;;;2.60;1.90;;;;;;;19.11;48.46;99184.70;3882067;90;21646;-81
2021/05/28 15:30:56;;;;;;;3.08;2.27;;;;;;;19.01;47.95;99188.49;3890310;91;21189;-81
2021/05/28 15:36:57;;;;;;;5.25;1.87;;;;;;;18.91;47.18;99188.68;3884179;90;21159;-81
2021/05/28 15:43:00;;;;;;;4.05;1.80;;;;;;;18.80;48.31;99188.89;3893264;91;21772;-81
2021/05/28 15:49:02;;;;;;;3.25;1.47;;;;;;;18.45;47.90;99192.29;3890904;91;21118;-81
2021/05/28 16:01:58;;;;;;;4.92;2.05;;;;;;;17.99;47.16;99200.56;3919110;89;21210;-81
2021/05/28 16:08:06;;;;;;;6.45;2.20;;;;;;;17.55;47.67;99200.80;3926910;89;21141;-81
2021/05/28 16:14:07;;;;;;;3.40;2.17;;;;;;;17.12;48.41;99201.31;3921895;90;21094;-80
2021/05/28 16:20:12;;;;;;;3.55;2.10;;;;;;;16.83;48.61;99202.84;3924048;89;21129;-80
2021/05/28 16:26:14;;;;;;;4.65;2.15;;;;;;;16.72;49.19;99203.55;3926396;89;21149;-81
2021/05/28 16:32:16;;;;;;;4.40;1.75;;;;;;;16.85;49.25;99196.28;3924100;89;21382;-80
2021/05/28 16:38:18;;;;;;;2.83;2.30;;;;;;;16.76;49.46;99202.11;3923961;89;21169;-80
2021/05/28 16:44:22;;;;;;;4.85;1.60;;;;;;;16.52;49.33;99203.92;3924551;90;21118;-81
2021/05/28 16:50:25;;;;;;;3.10;1.92;;;;;;;16.47;49.90;99200.83;3926009;89;21179;-81
2021/05/28 16:56:27;;;;;;;3.42;1.95;;;;;;;16.37;50.78;99205.22;3923248;90;21157;-81
2021/05/28 17:02:28;;;;;;;3.72;2.47;;;;;;;16.20;50.91;99208.92;3921549;89;21130;-81
2021/05/28 17:08:32;;;;;;;3.47;2.30;;;;;;;16.03;50.93;99208.47;3913597;89;21102;-81
2021/05/28 17:14:33;;;;;;;4.22;2.50;;;;;;;15.97;51.66;99207.92;3884775;92;21217;-81
2021/05/28 17:20:35;;;;;;;4.08;2.60;;;;;;;15.96;52.39;99208.51;3884469;90;21145;-80
2021/05/28 17:26:36;;;;;;;5.10;2.55;;;;;;;15.88;51.95;99202.84;3885208;91;21107;-81
2021/05/28 17:32:39;;;;;;;4.80;2.42;;;;;;;15.87;51.69;99202.66;3884285;91;21617;-81
2021/05/28 17:45:47;;;;;;;4.42;2.15;;;;;;;15.59;52.58;99197.32;3882354;90;21833;-80
2021/05/28 17:51:49;;;;;;;4.95;2.72;;;;;;;15.46;53.13;99203.89;3882872;92;21096;-81
2021/05/28 17:57:51;;;;;;;3.55;2.08;;;;;;;15.34;54.37;99200.19;3913162;89;21229;-80
2021/05/28 18:03:52;;;;;;;3.90;2.70;;;;;;;15.14;54.05;99210.71;3914442;89;22763;-80
2021/05/28 18:09:58;;;;;;;3.70;2.25;;;;;;;15.06;53.95;99216.85;3917175;89;21221;-80
2021/05/28 18:15:57;;;;;;;4.22;2.50;;;;;;;14.93;54.59;99220.41;3883407;90;21112;-80
2021/05/28 18:21:59;;;;;;;4.83;2.70;;;;;;;14.57;55.71;99227.18;3889303;90;21136;-80
2021/05/28 18:28:02;;;;;;;8.23;2.52;;;;;;;14.42;55.46;99229.77;3881842;90;21085;-80
2021/05/28 18:34:07;;;;;;;6.95;2.85;;;;;;;14.26;55.79;99232.12;3881523;90;21141;-80
2021/05/28 18:40:11;;;;;;;5.30;2.98;;;;;;;14.05;56.99;99232.86;3944606;89;21111;-80
2021/05/28 18:46:16;;;;;;;7.53;2.80;;;;;;;13.95;57.24;99237.78;3871632;92;21153;-80
2021/05/28 18:52:17;;;;;;;6.20;3.20;;;;;;;13.87;56.78;99241.12;3945962;89;21100;-80
2021/05/28 18:58:22;;;;;;;7.95;3.10;;;;;;;13.77;56.57;99244.63;3871950;91;21135;-80
2021/05/28 19:04:24;;;;;;;6.15;3.40;;;;;;;13.72;56.65;99251.08;3880255;90;21173;-80
2021/05/28 19:17:30;;;;;;;6.78;3.70;;;;;;;13.57;57.97;99261.27;3878009;92;21223;-80
2021/05/28 19:23:33;;;;;;;9.05;4.15;;;;;;;13.37;57.86;99272.40;3906031;88;21707;-80
2021/05/28 19:29:34;;;;;;;7.92;4.58;;;;;;;13.13;58.17;99274.43;3872901;92;21141;-80
2021/05/28 19:35:36;;;;;;;8.95;4.97;;;;;;;12.94;57.99;99280.17;3918615;89;21079;-80
2021/05/28 19:42:12;;;;;;;6.87;4.37;;;;;;;12.85;59.12;99285.23;3897574;88;21651;-80
2021/05/28 19:48:16;;;;;;;10.58;5.05;;;;;;;12.77;60.11;99291.84;3910196;90;21109;-80
2021/05/28 20:00:42;;;;;;;8.30;5.17;;;;;;;12.70;61.56;99297.27;3913548;89;21125;-83
2021/05/28 20:06:43;;;;;;;10.00;5.30;;;;;;;12.77;61.88;99289.09;3924205;89;21133;-80
2021/05/28 20:19:06;;;;;;;11.40;5.83;;;;;;;12.70;62.83;99295.89;3895085;91;21655;-80
2021/05/28 20:25:10;;;;;;;10.43;6.62;;;;;;;12.64;62.87;99304.30;3894778;90;21635;-80
2021/05/28 20:31:36;;;;;;;14.30;7.62;;;;;;;12.67;63.44;99302.16;3925385;89;21201;-80
2021/05/28 20:37:39;;;;;;;14.73;8.65;;;;;;;12.68;63.52;99305.13;3924217;89;21082;-81
2021/05/28 20:43:40;;;;;;;16.23;8.13;;;;;;;12.75;63.50;99306.53;3923729;89;21118;-79
2021/05/28 20:49:42;;;;;;;11.28;7.53;;;;;;;12.75;63.72;99310.66;3925611;89;21231;-81
2021/05/28 21:03:01;;;;;;;16.70;8.90;;;;;;;12.55;63.99;99308.75;3910481;90;21181;-79
2021/05/28 21:09:05;;;;;;;15.18;8.53;;;;;;;12.48;64.08;99306.54;3888946;91;21102;-80
2021/05/28 21:15:12;;;;;;;14.00;7.80;;;;;;;12.42;64.70;99311.58;3888997;91;21113;-79
2021/05/28 21:21:13;;;;;;;13.00;6.85;;;;;;;12.34;65.20;99304.44;3893066;91;21178;-79
2021/05/28 21:27:14;;;;;;;11.40;6.78;;;;;;;12.38;65.95;99308.02;3887596;91;21677;-79
2021/05/28 21:33:16;;;;;;;15.72;7.58;;;;;;;12.49;66.08;99311.65;3882330;91;21630;-79
2021/05/28 21:39:21;;;;;;;12.50;6.97;;;;;;;12.51;66.01;99302.42;3885180;90;21668;-79
2021/05/28 21:45:23;;;;;;;15.65;6.92;;;;;;;12.25;66.24;99315.52;3875537;91;21090;-79
2021/05/28 21:51:24;;;;;;;18.75;7.87;;;;;;;12.22;66.88;99312.97;3903555;89;21082;-80
2021/05/28 21:57:25;;;;;;;15.85;8.30;;;;;;;12.30;66.83;99313.23;3890729;89;21147;-80
2021/05/28 22:03:49;;;;;;;19.32;7.85;;;;;;;12.32;66.91;99306.00;3876741;89;21116;-79
2021/05/28 22:09:51;;;;;;;14.95;7.40;;;;;;;12.32;67.10;99317.75;3880004;91;21194;-82
2021/05/28 22:15:53;;;;;;;13.30;8.58;;;;;;;12.24;67.31;99311.22;3978980;88;21088;-83
2021/05/28 22:21:54;;;;;;;13.48;7.47;;;;;;;12.18;67.81;99305.27;3914527;90;21109;-81
2021/05/28 22:28:15;;;;;;;16.45;7.33;;;;;;;12.24;68.16;99307.89;3916173;90;21618;-80
2021/05/28 22:34:16;;;;;;;15.80;8.48;;;;;;;12.35;68.36;99305.23;3915517;90;21090;-81
2021/05/28 22:40:17;;;;;;;14.35;8.18;;;;;;;12.37;68.44;99293.30;3917963;90;21110;-82
2021/05/28 22:52:22;;;;;;;15.53;7.85;;;;;;;12.16;68.81;99290.36;3915611;89;21121;-81
2021/05/28 22:58:26;;;;;;;15.10;8.20;;;;;;;12.14;69.21;99298.97;3915752;90;21669;-81
2021/05/28 23:04:27;;;;;;;16.90;8.60;;;;;;;12.11;69.15;99294.23;3919191;88;21221;-81
2021/05/28 23:10:32;;;;;;;18.10;10.18;;;;;;;12.18;69.75;99293.52;3915638;90;21669;-81
2021/05/28 23:16:33;;;;;;;14.53;9.85;;;;;;;12.14;69.31;99289.36;3915286;89;21629;-81
2021/05/28 23:22:34;;;;;;;14.47;8.88;;;;;;;12.07;69.71;99286.56;3914723;90;21145;-80
2021/05/28 23:28:35;;;;;;;11.80;7.33;;;;;;;12.11;69.77;99281.09;3914032;90;21573;-81
2021/05/28 23:34:37;;;;;;;16.25;8.23;;;;;;;12.03;70.22;99282.98;3917624;90;21153;-81
2021/05/28 23:40:39;;;;;;;14.50;8.40;;;;;;;12.07;70.79;99288.51;3917901;90;21715;-81
2021/05/28 23:46:42;;;;;;;16.93;8.90;;;;;;;12.05;70.98;99283.97;3919701;90;21645;-80
2021/05/28 23:52:43;;;;;;;11.30;8.03;;;;;;;12.08;71.02;99286.76;3915374;89;21094;-81
2021/05/28 23:58:44;;;;;;;12.80;7.83;;;;;;;12.18;70.98;99284.68;3914177;90;21712;-81
